Time;durP1;ratioP1;P1;durP2;ratioP2;P2;SDS_P1;SDS_P2;PMS_P1;PMS_P2;Temp;Humidity;BMP_temperature;BMP_pressure;BME280_temperature;BME280_humidity;BME280_pressure;Samples;Min_cycle;Max_cycle;Signal;HPM_P1;HPM_P2
2022/01/08 00:00:08;;;;;;;33.47;20.02;;;;;;;;;;5018205;28;20053;-89
2022/01/08 00:02:34;;;;;;;36.80;20.17;;;;;;;;;;5017796;28;20070;-89
2022/01/08 00:05:01;;;;;;;33.85;20.13;;;;;;;;;;5017815;28;20356;-89
2022/01/08 00:07:27;;;;;;;33.35;20.10;;;;;;;;;;5018429;28;20034;-89
2022/01/08 00:09:54;;;;;;;34.03;20.65;;;;;;;;;;5016932;28;20025;-89
2022/01/08 00:12:20;;;;;;;31.55;20.00;;;;;;;;;;5017082;28;20045;-90
2022/01/08 00:14:46;;;;;;;34.83;20.30;;;;;;;;;;5017033;28;20026;-89
2022/01/08 00:17:12;;;;;;;36.97;21.08;;;;;;;;;;5016344;28;20026;-89
2022/01/08 00:19:39;;;;;;;43.72;23.65;;;;;;;;;;5017861;28;20037;-89
2022/01/08 00:22:05;;;;;;;47.63;25.88;;;;;;;;;;5018164;28;20104;-89
2022/01/08 00:24:31;;;;;;;56.13;28.35;;;;;;;;;;5016716;28;20066;-89
2022/01/08 00:26:57;;;;;;;54.40;28.02;;;;;;;;;;5016787;28;20022;-88
2022/01/08 00:29:23;;;;;;;43.47;25.27;;;;;;;;;;5017697;28;20022;-88
2022/01/08 00:31:49;;;;;;;41.58;24.15;;;;;;;;;;5017689;28;20041;-87
2022/01/08 00:34:15;;;;;;;45.80;25.55;;;;;;;;;;5017713;28;20033;-88
2022/01/08 00:36:41;;;;;;;46.28;26.75;;;;;;;;;;5017566;28;20037;-88
2022/01/08 00:39:07;;;;;;;45.70;26.17;;;;;;;;;;5017508;28;20032;-87
2022/01/08 00:41:33;;;;;;;46.05;25.38;;;;;;;;;;5016604;28;20124;-88
2022/01/08 00:43:59;;;;;;;50.10;26.45;;;;;;;;;;5018657;28;20018;-89
2022/01/08 00:46:25;;;;;;;48.33;26.38;;;;;;;;;;5020541;28;20018;-88
2022/01/08 00:48:52;;;;;;;54.05;29.65;;;;;;;;;;5021202;28;20064;-88
2022/01/08 00:51:18;;;;;;;53.42;28.60;;;;;;;;;;5021802;28;20041;-88
2022/01/08 00:53:44;;;;;;;59.78;30.45;;;;;;;;;;5021067;28;20034;-89
2022/01/08 00:56:10;;;;;;;54.15;29.08;;;;;;;;;;5021358;28;20030;-90
2022/01/08 00:58:36;;;;;;;62.97;30.67;;;;;;;;;;5021612;28;20329;-90
2022/01/08 01:01:02;;;;;;;54.17;27.42;;;;;;;;;;5021148;28;20107;-91
2022/01/08 01:03:28;;;;;;;54.67;27.13;;;;;;;;;;5021300;28;20022;-90
2022/01/08 01:05:54;;;;;;;59.15;27.25;;;;;;;;;;5021399;28;20104;-90
2022/01/08 01:08:20;;;;;;;58.58;29.25;;;;;;;;;;5020292;28;20034;-89
2022/01/08 01:10:46;;;;;;;55.08;27.55;;;;;;;;;;5019554;28;20037;-89
2022/01/08 01:13:12;;;;;;;52.28;26.77;;;;;;;;;;5021132;28;20030;-90
2022/01/08 01:15:54;;;;;;;52.85;27.17;;;;;;;;;;5019378;28;20034;-89
2022/01/08 01:18:20;;;;;;;50.65;26.55;;;;;;;;;;5020264;28;20379;-89
2022/01/08 01:20:46;;;;;;;49.33;27.05;;;;;;;;;;5019850;28;20058;-89
2022/01/08 01:23:16;;;;;;;51.10;26.83;;;;;;;;;;5019439;28;20037;-90
2022/01/08 01:25:49;;;;;;;45.97;25.52;;;;;;;;;;5021235;28;20026;-90
2022/01/08 01:47:07;;;;;;;34.88;22.08;;;;;;;;;;5021062;28;20107;-89
2022/01/08 01:49:34;;;;;;;36.78;22.75;;;;;;;;;;5019455;28;20093;-90
2022/01/08 01:52:01;;;;;;;35.67;22.75;;;;;;;;;;5020688;28;20022;-89
2022/01/08 01:54:31;;;;;;;35.65;21.63;;;;;;;;;;5019989;28;20045;-87
2022/01/08 01:56:58;;;;;;;38.05;20.73;;;;;;;;;;5019790;28;20037;-89
2022/01/08 01:59:25;;;;;;;35.42;21.60;;;;;;;;;;5020040;28;20026;-88
2022/01/08 02:01:51;;;;;;;31.88;19.90;;;;;;;;;;5020113;28;20084;-89
2022/01/08 02:04:17;;;;;;;34.40;18.88;;;;;;;;;;5019051;28;20049;-89
2022/01/08 02:06:44;;;;;;;30.17;19.83;;;;;;;;;;5020004;28;20024;-89
2022/01/08 02:09:10;;;;;;;30.40;19.83;;;;;;;;;;5020221;28;20424;-90
2022/01/08 02:11:56;;;;;;;31.00;19.15;;;;;;;;;;5020267;28;20029;-91
2022/01/08 02:14:22;;;;;;;27.52;17.58;;;;;;;;;;5020029;28;20025;-90
2022/01/08 02:16:48;;;;;;;27.30;17.13;;;;;;;;;;5020080;28;20026;-90
2022/01/08 02:19:15;;;;;;;27.70;17.30;;;;;;;;;;5019076;28;20479;-89
2022/01/08 02:21:54;;;;;;;29.85;18.23;;;;;;;;;;5018693;28;20137;-89
2022/01/08 02:24:21;;;;;;;30.75;17.20;;;;;;;;;;5019752;28;20018;-89
2022/01/08 02:26:47;;;;;;;28.73;16.73;;;;;;;;;;5019744;28;20022;-90
2022/01/08 02:29:13;;;;;;;29.42;17.35;;;;;;;;;;5020006;28;20022;-90
2022/01/08 02:31:40;;;;;;;27.55;17.90;;;;;;;;;;5019696;28;20026;-87
2022/01/08 02:34:06;;;;;;;31.42;18.98;;;;;;;;;;5019739;28;20408;-88
2022/01/08 02:36:33;;;;;;;31.63;17.48;;;;;;;;;;5018000;28;20121;-87
2022/01/08 02:38:59;;;;;;;28.40;17.38;;;;;;;;;;5019435;28;20499;-88
2022/01/08 02:41:27;;;;;;;33.15;18.33;;;;;;;;;;5019512;28;20041;-88
2022/01/08 02:43:54;;;;;;;29.13;18.17;;;;;;;;;;5019652;28;20029;-89
2022/01/08 02:46:20;;;;;;;25.85;17.92;;;;;;;;;;5019383;28;20064;-91
2022/01/08 02:48:46;;;;;;;30.13;17.90;;;;;;;;;;5019404;28;20022;-89
2022/01/08 02:51:12;;;;;;;29.40;19.10;;;;;;;;;;5019378;28;20033;-90
2022/01/08 02:53:38;;;;;;;29.25;18.30;;;;;;;;;;5019711;28;20053;-90
2022/01/08 02:56:05;;;;;;;29.67;18.20;;;;;;;;;;5019127;28;20316;-90
2022/01/08 02:58:31;;;;;;;33.20;19.10;;;;;;;;;;5019036;28;20026;-90
2022/01/08 03:00:57;;;;;;;31.58;19.25;;;;;;;;;;5019027;28;20038;-89
2022/01/08 03:03:24;;;;;;;32.42;18.45;;;;;;;;;;5019031;28;20324;-88
2022/01/08 03:05:50;;;;;;;34.35;19.80;;;;;;;;;;5019306;28;20017;-89
2022/01/08 03:08:16;;;;;;;31.42;18.85;;;;;;;;;;5018896;28;20022;-89
2022/01/08 03:10:43;;;;;;;32.33;19.88;;;;;;;;;;5019249;28;20076;-89
2022/01/08 03:13:09;;;;;;;35.97;19.88;;;;;;;;;;5018250;28;20032;-88
2022/01/08 03:15:37;;;;;;;32.10;19.15;;;;;;;;;;5019099;28;20021;-88
2022/01/08 03:18:03;;;;;;;34.38;20.67;;;;;;;;;;5017980;28;20033;-88
2022/01/08 03:20:29;;;;;;;31.42;19.42;;;;;;;;;;5017027;28;20053;-89
2022/01/08 03:23:02;;;;;;;30.77;18.65;;;;;;;;;;5017744;28;20063;-88
2022/01/08 03:25:28;;;;;;;29.90;19.33;;;;;;;;;;5017676;28;20026;-89
2022/01/08 03:27:55;;;;;;;28.88;19.33;;;;;;;;;;5018898;28;20025;-89
2022/01/08 03:30:21;;;;;;;34.35;20.42;;;;;;;;;;5018545;28;20049;-91
2022/01/08 03:32:47;;;;;;;31.17;20.23;;;;;;;;;;5018387;28;20030;-88
2022/01/08 03:35:13;;;;;;;30.80;19.05;;;;;;;;;;5018468;28;20483;-87
2022/01/08 03:37:39;;;;;;;29.88;18.92;;;;;;;;;;5018382;28;20049;-89
2022/01/08 03:40:06;;;;;;;30.05;19.20;;;;;;;;;;5018600;28;20028;-89
2022/01/08 03:42:33;;;;;;;31.38;20.05;;;;;;;;;;5017464;28;20037;-89
2022/01/08 03:44:59;;;;;;;30.60;19.90;;;;;;;;;;5018430;28;20014;-88
2022/01/08 03:49:54;;;;;;;37.72;22.48;;;;;;;;;;5018452;28;20034;-88
2022/01/08 03:52:21;;;;;;;34.08;21.23;;;;;;;;;;5018207;28;20032;-88
2022/01/08 03:54:47;;;;;;;37.55;22.95;;;;;;;;;;5018432;28;20032;-88
2022/01/08 03:57:13;;;;;;;39.88;24.25;;;;;;;;;;5018212;28;20025;-89
2022/01/08 03:59:39;;;;;;;51.53;28.60;;;;;;;;;;5016645;28;20041;-89
2022/01/08 04:02:06;;;;;;;47.97;27.25;;;;;;;;;;5017054;28;20117;-89
2022/01/08 04:04:32;;;;;;;45.78;26.02;;;;;;;;;;5017046;28;20022;-91
2022/01/08 04:06:58;;;;;;;37.83;22.77;;;;;;;;;;5017794;28;20148;-90
2022/01/08 04:09:24;;;;;;;37.78;23.10;;;;;;;;;;5016187;28;20034;-90
2022/01/08 04:11:51;;;;;;;37.25;22.40;;;;;;;;;;5017326;28;20028;-90
2022/01/08 04:14:19;;;;;;;50.03;26.60;;;;;;;;;;5016299;28;20042;-89
2022/01/08 04:16:49;;;;;;;39.78;21.85;;;;;;;;;;5017008;28;20024;-90
2022/01/08 04:19:16;;;;;;;73.45;30.52;;;;;;;;;;5017612;28;20329;-91
2022/01/08 04:21:58;;;;;;;67.65;28.75;;;;;;;;;;5017477;28;20046;-89
2022/01/08 04:24:24;;;;;;;;;;;;;;;;;;5018404;28;20030;-88
2022/01/08 04:26:50;;;;;;;34.08;20.30;;;;;;;;;;5017854;28;19905;-89
2022/01/08 04:29:16;;;;;;;36.78;21.20;;;;;;;;;;5017714;28;20033;-89
2022/01/08 04:31:43;;;;;;;48.33;25.23;;;;;;;;;;5018123;28;20025;-88
2022/01/08 04:34:09;;;;;;;45.50;25.67;;;;;;;;;;5016792;28;20030;-89
2022/01/08 04:36:35;;;;;;;44.22;24.42;;;;;;;;;;5017684;28;20409;-89
2022/01/08 04:39:01;;;;;;;43.65;23.27;;;;;;;;;;5018161;28;20029;-89
2022/01/08 04:41:27;;;;;;;38.20;21.55;;;;;;;;;;5017647;28;20467;-87
2022/01/08 04:43:53;;;;;;;35.05;21.48;;;;;;;;;;5017402;28;20022;-87
2022/01/08 04:46:19;;;;;;;32.03;19.58;;;;;;;;;;5016877;28;20136;-87
2022/01/08 04:48:45;;;;;;;27.52;18.55;;;;;;;;;;5017742;28;20018;-87
2022/01/08 04:51:11;;;;;;;35.10;20.40;;;;;;;;;;5017470;28;20026;-87
2022/01/08 04:53:37;;;;;;;25.83;17.25;;;;;;;;;;5016655;28;20026;-87
2022/01/08 04:56:03;;;;;;;32.33;19.42;;;;;;;;;;5017711;28;20033;-87
2022/01/08 04:58:30;;;;;;;36.85;21.90;;;;;;;;;;5015933;28;20400;-87
2022/01/08 05:00:56;;;;;;;28.92;18.95;;;;;;;;;;5017391;28;20412;-87
2022/01/08 05:03:22;;;;;;;35.53;19.92;;;;;;;;;;5015777;28;20475;-89
2022/01/08 05:05:48;;;;;;;31.48;18.15;;;;;;;;;;5017523;28;20042;-88
2022/01/08 05:08:14;;;;;;;37.45;20.50;;;;;;;;;;5017298;28;20317;-88
2022/01/08 05:10:40;;;;;;;39.40;22.85;;;;;;;;;;5016552;28;20379;-90
2022/01/08 05:13:06;;;;;;;40.47;21.58;;;;;;;;;;5016272;28;20068;-89
2022/01/08 05:15:33;;;;;;;35.10;20.50;;;;;;;;;;5017572;28;20018;-89
2022/01/08 05:17:59;;;;;;;32.97;19.70;;;;;;;;;;5017198;28;20022;-90
2022/01/08 05:20:30;;;;;;;41.88;21.42;;;;;;;;;;5017294;28;20436;-89
2022/01/08 05:23:00;;;;;;;35.50;19.73;;;;;;;;;;5016400;28;20447;-89
2022/01/08 05:25:26;;;;;;;33.67;19.00;;;;;;;;;;5017472;28;20026;-89
2022/01/08 05:27:53;;;;;;;34.85;19.52;;;;;;;;;;5015557;28;20038;-89
2022/01/08 05:30:20;;;;;;;32.08;18.33;;;;;;;;;;5018161;28;20289;-89
2022/01/08 05:32:46;;;;;;;31.98;18.80;;;;;;;;;;5020896;28;20105;-89
2022/01/08 05:35:12;;;;;;;33.40;19.48;;;;;;;;;;5020521;28;20032;-89
2022/01/08 05:37:38;;;;;;;34.88;19.15;;;;;;;;;;5020600;28;20531;-89
2022/01/08 05:40:04;;;;;;;36.08;19.77;;;;;;;;;;5020854;28;20065;-88
2022/01/08 05:42:31;;;;;;;35.00;19.92;;;;;;;;;;5019399;28;20037;-87
2022/01/08 05:44:57;;;;;;;33.92;20.65;;;;;;;;;;5020905;28;20022;-89
2022/01/08 05:47:27;;;;;;;34.28;20.23;;;;;;;;;;5020403;28;20030;-88
2022/01/08 05:49:53;;;;;;;34.38;21.10;;;;;;;;;;5020714;28;20030;-88
2022/01/08 05:52:19;;;;;;;33.70;20.90;;;;;;;;;;5020643;28;20018;-87
2022/01/08 05:54:45;;;;;;;31.00;19.17;;;;;;;;;;5020548;28;20026;-88
2022/01/08 05:57:11;;;;;;;36.47;21.63;;;;;;;;;;5020384;28;20030;-89
2022/01/08 05:59:37;;;;;;;34.30;21.65;;;;;;;;;;5020333;28;20026;-87
2022/01/08 06:02:22;;;;;;;33.53;21.63;;;;;;;;;;5020094;28;20030;-87
2022/01/08 06:04:48;;;;;;;33.88;22.20;;;;;;;;;;5020390;28;20424;-88
2022/01/08 06:07:14;;;;;;;41.92;24.33;;;;;;;;;;5020465;28;20393;-89
2022/01/08 06:09:40;;;;;;;47.42;26.45;;;;;;;;;;5020161;28;20018;-90
2022/01/08 06:12:06;;;;;;;51.53;28.90;;;;;;;;;;5018558;28;20137;-90
2022/01/08 06:14:32;;;;;;;60.05;32.03;;;;;;;;;;5020032;28;20474;-90
2022/01/08 06:16:58;;;;;;;60.53;32.67;;;;;;;;;;5019780;28;20041;-91
2022/01/08 06:19:27;;;;;;;50.45;28.00;;;;;;;;;;5019831;28;20115;-89
2022/01/08 06:21:53;;;;;;;39.20;23.65;;;;;;;;;;5019725;28;20022;-90
2022/01/08 06:24:19;;;;;;;38.65;23.80;;;;;;;;;;5018236;28;20417;-88
2022/01/08 06:26:45;;;;;;;33.42;22.13;;;;;;;;;;5019882;28;20040;-88
2022/01/08 06:29:11;;;;;;;30.52;20.45;;;;;;;;;;5019621;28;20050;-88
2022/01/08 06:31:37;;;;;;;32.10;20.25;;;;;;;;;;5019574;28;20309;-89
2022/01/08 06:34:03;;;;;;;28.42;18.20;;;;;;;;;;5019514;28;20026;-89
2022/01/08 06:36:30;;;;;;;30.30;19.60;;;;;;;;;;5017828;28;20030;-88
2022/01/08 06:38:56;;;;;;;28.67;19.42;;;;;;;;;;5018575;28;20048;-88
2022/01/08 06:41:22;;;;;;;27.05;19.17;;;;;;;;;;5019344;28;20136;-88
2022/01/08 06:43:48;;;;;;;31.20;19.33;;;;;;;;;;5018621;28;20018;-88
2022/01/08 06:46:14;;;;;;;25.58;18.48;;;;;;;;;;5018495;28;20022;-89
2022/01/08 06:48:41;;;;;;;26.60;17.77;;;;;;;;;;5001174;28;20037;-89
2022/01/08 06:51:07;;;;;;;28.33;17.92;;;;;;;;;;4979280;28;20416;-90
2022/01/08 06:53:33;;;;;;;35.13;20.25;;;;;;;;;;4989677;28;20455;-90
2022/01/08 06:56:00;;;;;;;36.70;21.20;;;;;;;;;;4999431;28;20388;-89
2022/01/08 06:58:26;;;;;;;33.88;21.45;;;;;;;;;;4999617;28;20034;-89
2022/01/08 07:00:53;;;;;;;36.45;20.40;;;;;;;;;;4998958;28;20030;-90
2022/01/08 07:03:19;;;;;;;44.75;25.77;;;;;;;;;;4997879;28;20072;-89
2022/01/08 07:05:45;;;;;;;47.67;27.17;;;;;;;;;;4998569;28;20023;-89
2022/01/08 07:08:11;;;;;;;44.20;27.20;;;;;;;;;;4999430;28;20052;-89
2022/01/08 07:10:37;;;;;;;51.97;31.45;;;;;;;;;;4999464;28;20026;-88
2022/01/08 07:13:03;;;;;;;54.50;32.70;;;;;;;;;;4999054;28;20333;-89
2022/01/08 07:15:29;;;;;;;54.60;31.38;;;;;;;;;;4998906;28;20018;-87
2022/01/08 07:17:56;;;;;;;56.20;30.63;;;;;;;;;;4998949;28;20035;-89
2022/01/08 07:20:22;;;;;;;46.22;26.95;;;;;;;;;;4998050;28;20050;-89
2022/01/08 07:22:48;;;;;;;72.20;38.00;;;;;;;;;;4999119;28;20321;-89
2022/01/08 07:25:15;;;;;;;79.57;42.05;;;;;;;;;;4998715;28;20019;-89
2022/01/08 07:27:41;;;;;;;67.25;36.08;;;;;;;;;;4999295;28;20105;-88
2022/01/08 07:30:08;;;;;;;68.20;41.13;;;;;;;;;;4999014;28;20058;-89
2022/01/08 07:32:40;;;;;;;50.42;29.05;;;;;;;;;;4997971;28;20420;-89
2022/01/08 07:35:06;;;;;;;44.05;26.65;;;;;;;;;;4998959;28;20031;-89
2022/01/08 07:37:32;;;;;;;37.90;23.60;;;;;;;;;;4997867;28;20070;-89
2022/01/08 07:39:58;;;;;;;38.80;21.02;;;;;;;;;;4997903;28;20034;-89
2022/01/08 07:42:24;;;;;;;32.22;20.23;;;;;;;;;;4997761;28;20026;-90
2022/01/08 07:44:50;;;;;;;31.33;20.23;;;;;;;;;;4997888;28;20053;-90
2022/01/08 07:47:17;;;;;;;32.75;19.92;;;;;;;;;;4997538;28;20329;-91
2022/01/08 07:49:43;;;;;;;31.77;20.70;;;;;;;;;;4997872;28;20393;-89
2022/01/08 07:52:09;;;;;;;31.92;19.17;;;;;;;;;;4999008;28;20030;-89
2022/01/08 07:54:35;;;;;;;31.58;20.20;;;;;;;;;;4997876;28;20073;-89
2022/01/08 07:57:01;;;;;;;36.00;20.33;;;;;;;;;;4998576;28;20425;-90
2022/01/08 07:59:27;;;;;;;39.95;22.27;;;;;;;;;;4998071;28;20337;-88
2022/01/08 08:01:53;;;;;;;35.83;20.17;;;;;;;;;;4998388;28;20325;-89
2022/01/08 08:04:20;;;;;;;36.75;21.33;;;;;;;;;;4998669;28;20033;-89
2022/01/08 08:06:47;;;;;;;38.63;21.05;;;;;;;;;;4997442;28;20026;-89
2022/01/08 08:09:13;;;;;;;41.55;22.50;;;;;;;;;;4998336;28;20033;-88
2022/01/08 08:11:39;;;;;;;27.88;15.82;;;;;;;;;;4998620;28;20030;-88
2022/01/08 08:14:05;;;;;;;26.48;16.30;;;;;;;;;;4998433;28;20033;-89
2022/01/08 08:16:50;;;;;;;30.95;19.17;;;;;;;;;;4997664;28;20030;-89
2022/01/08 08:19:16;;;;;;;29.13;18.00;;;;;;;;;;4998362;28;20038;-88
2022/01/08 08:21:42;;;;;;;35.20;20.83;;;;;;;;;;4997955;28;20046;-89
2022/01/08 08:24:10;;;;;;;51.33;29.52;;;;;;;;;;4997098;28;20125;-88
2022/01/08 08:26:38;;;;;;;138.20;48.53;;;;;;;;;;4997243;28;20023;-90
2022/01/08 08:29:04;;;;;;;195.02;61.53;;;;;;;;;;4998170;28;20027;-90
2022/01/08 08:31:30;;;;;;;197.52;60.75;;;;;;;;;;4998106;28;20030;-89
2022/01/08 08:33:56;;;;;;;150.77;52.58;;;;;;;;;;4998245;28;20069;-90
2022/01/08 08:36:23;;;;;;;135.68;49.65;;;;;;;;;;4997927;28;20061;-90
2022/01/08 08:38:49;;;;;;;98.50;45.40;;;;;;;;;;4997106;28;20435;-90
2022/01/08 08:41:15;;;;;;;84.43;38.70;;;;;;;;;;4997748;28;20324;-90
2022/01/08 08:43:41;;;;;;;63.17;31.90;;;;;;;;;;4997949;28;20033;-90
2022/01/08 08:46:07;;;;;;;41.85;24.77;;;;;;;;;;4996783;28;20041;-88
2022/01/08 08:48:34;;;;;;;39.70;23.20;;;;;;;;;;5008199;28;20415;-89
2022/01/08 08:51:00;;;;;;;35.85;19.88;;;;;;;;;;5016370;28;20037;-89
2022/01/08 08:53:26;;;;;;;30.17;19.00;;;;;;;;;;5017536;28;20018;-88
2022/01/08 08:55:52;;;;;;;25.60;16.77;;;;;;;;;;5016403;28;20033;-88
2022/01/08 08:58:18;;;;;;;24.83;15.88;;;;;;;;;;5016011;28;20446;-89
2022/01/08 09:00:44;;;;;;;25.38;16.92;;;;;;;;;;5017334;28;20349;-88
2022/01/08 09:03:10;;;;;;;25.35;17.58;;;;;;;;;;5017126;28;20026;-88
2022/01/08 09:05:37;;;;;;;28.95;18.75;;;;;;;;;;4995727;28;20031;-89
2022/01/08 09:08:04;;;;;;;30.25;19.33;;;;;;;;;;4999792;28;20049;-89
2022/01/08 09:10:30;;;;;;;31.38;20.30;;;;;;;;;;5001628;28;20026;-88
2022/01/08 09:12:56;;;;;;;36.67;23.58;;;;;;;;;;5001658;28;20038;-89
2022/01/08 09:15:25;;;;;;;36.63;22.67;;;;;;;;;;5001759;28;20025;-88
2022/01/08 09:17:52;;;;;;;35.33;20.85;;;;;;;;;;5008141;28;20052;-87
2022/01/08 09:20:18;;;;;;;32.50;21.00;;;;;;;;;;4983317;28;20072;-86
2022/01/08 09:22:45;;;;;;;42.50;25.88;;;;;;;;;;4999988;28;20065;-87
2022/01/08 09:25:11;;;;;;;53.83;29.48;;;;;;;;;;5001274;28;20024;-89
2022/01/08 09:27:37;;;;;;;72.22;34.60;;;;;;;;;;5000899;28;20026;-89
2022/01/08 09:30:05;;;;;;;70.90;34.17;;;;;;;;;;5000394;28;20088;-87
2022/01/08 09:35:34;;;;;;;148.90;49.42;;;;;;;;;;5001171;28;20056;-88
2022/01/08 09:38:01;;;;;;;124.70;43.70;;;;;;;;;;5001226;28;20054;-89
2022/01/08 09:40:27;;;;;;;96.03;33.70;;;;;;;;;;5001056;28;20037;-88
2022/01/08 09:42:53;;;;;;;60.58;24.20;;;;;;;;;;4996302;28;20082;-88
2022/01/08 09:45:19;;;;;;;64.35;25.80;;;;;;;;;;4981843;28;20022;-89
2022/01/08 09:50:49;;;;;;;27.25;17.88;;;;;;;;;;5019336;28;20033;-87
2022/01/08 09:53:15;;;;;;;25.05;17.08;;;;;;;;;;4999436;28;20027;-82
2022/01/08 09:55:41;;;;;;;30.65;18.75;;;;;;;;;;4996663;28;20018;-82
2022/01/08 09:58:07;;;;;;;34.75;18.83;;;;;;;;;;4999888;28;20042;-81
2022/01/08 10:00:35;;;;;;;29.75;18.85;;;;;;;;;;4999156;28;20524;-82
2022/01/08 10:03:17;;;;;;;29.38;17.77;;;;;;;;;;4998455;28;20073;-82
2022/01/08 10:05:44;;;;;;;;;;;;;;;;;;5000087;28;20053;-82
2022/01/08 10:08:12;;;;;;;27.95;17.05;;;;;;;;;;4998599;28;19914;-82
2022/01/08 10:10:38;;;;;;;26.20;17.33;;;;;;;;;;4999064;28;20030;-82
2022/01/08 10:13:04;;;;;;;27.25;17.30;;;;;;;;;;4998835;28;20105;-82
2022/01/08 10:18:24;;;;;;;24.52;15.63;;;;;;;;;;5005395;28;20037;-82
2022/01/08 10:20:51;;;;;;;27.05;16.55;;;;;;;;;;4998571;28;20046;-82
2022/01/08 10:23:20;;;;;;;27.30;16.52;;;;;;;;;;4981845;28;20377;-83
2022/01/08 10:26:01;;;;;;;26.83;17.83;;;;;;;;;;4978943;28;20027;-83
2022/01/08 10:28:40;;;;;;;28.55;17.90;;;;;;;;;;4986136;28;20109;-88
2022/01/08 10:31:12;;;;;;;33.03;18.45;;;;;;;;;;5019741;28;20021;-88
2022/01/08 10:33:39;;;;;;;29.20;18.42;;;;;;;;;;4991579;28;20033;-87
2022/01/08 10:36:06;;;;;;;32.70;20.00;;;;;;;;;;4998545;28;20030;-88
2022/01/08 10:38:32;;;;;;;56.80;25.75;;;;;;;;;;4991235;28;20472;-87
2022/01/08 10:40:58;;;;;;;65.15;29.52;;;;;;;;;;4980429;28;20074;-87
2022/01/08 10:43:27;;;;;;;71.10;32.22;;;;;;;;;;4980279;28;20368;-87
2022/01/08 10:45:54;;;;;;;67.20;34.10;;;;;;;;;;4980221;28;20027;-88
2022/01/08 10:48:30;;;;;;;77.25;35.83;;;;;;;;;;4980220;28;20325;-88
2022/01/08 10:51:12;;;;;;;71.70;34.00;;;;;;;;;;4980002;28;20077;-88
2022/01/08 10:53:56;;;;;;;66.50;31.55;;;;;;;;;;4980089;28;20063;-89
2022/01/08 10:56:24;;;;;;;55.78;30.33;;;;;;;;;;4980040;28;20050;-88
2022/01/08 10:58:53;;;;;;;48.78;28.45;;;;;;;;;;4979892;28;20448;-88
2022/01/08 11:01:38;;;;;;;44.28;26.20;;;;;;;;;;4979930;28;20413;-88
2022/01/08 11:04:04;;;;;;;45.28;27.08;;;;;;;;;;4984665;28;20019;-89
2022/01/08 11:06:30;;;;;;;46.05;26.73;;;;;;;;;;4999253;28;20022;-87
2022/01/08 11:09:03;;;;;;;67.00;34.80;;;;;;;;;;5014457;28;20030;-89
2022/01/08 11:11:31;;;;;;;76.97;39.97;;;;;;;;;;4999747;28;20037;-88
2022/01/08 11:14:07;;;;;;;90.80;46.88;;;;;;;;;;4999568;28;20401;-88
2022/01/08 11:17:10;;;;;;;74.15;40.78;;;;;;;;;;4981884;28;20385;-89
2022/01/08 11:19:37;;;;;;;61.33;31.70;;;;;;;;;;4991017;28;20368;-89
2022/01/08 11:22:05;;;;;;;69.05;33.65;;;;;;;;;;4999415;28;20321;-88
2022/01/08 11:24:32;;;;;;;75.55;34.67;;;;;;;;;;4984169;28;20390;-88
2022/01/08 11:26:59;;;;;;;57.25;30.30;;;;;;;;;;4985059;28;20401;-89
2022/01/08 11:29:25;;;;;;;72.65;33.90;;;;;;;;;;4979107;28;20154;-90
2022/01/08 11:35:12;;;;;;;67.95;32.15;;;;;;;;;;4993032;28;20033;-85
2022/01/08 11:37:38;;;;;;;63.60;32.13;;;;;;;;;;4998607;28;20034;-85
2022/01/08 11:40:06;;;;;;;80.72;38.95;;;;;;;;;;5014008;28;20122;-85
2022/01/08 11:42:36;;;;;;;87.38;38.22;;;;;;;;;;4998478;28;20030;-85
2022/01/08 11:45:04;;;;;;;76.28;34.00;;;;;;;;;;5013922;28;20369;-85
2022/01/08 11:47:31;;;;;;;77.68;40.58;;;;;;;;;;5001352;28;20033;-85
2022/01/08 11:50:01;;;;;;;73.72;31.38;;;;;;;;;;5016994;28;20121;-84
2022/01/08 11:52:28;;;;;;;95.35;43.08;;;;;;;;;;5018297;28;20038;-85
2022/01/08 11:54:54;;;;;;;108.70;57.00;;;;;;;;;;5017873;28;20064;-85
2022/01/08 11:57:24;;;;;;;141.00;75.55;;;;;;;;;;5017808;28;20416;-85
2022/01/08 11:59:56;;;;;;;257.48;129.10;;;;;;;;;;5016773;28;20038;-85
2022/01/08 12:02:33;;;;;;;324.98;160.43;;;;;;;;;;5017314;28;20035;-85
2022/01/08 12:04:59;;;;;;;685.97;297.73;;;;;;;;;;5016854;28;20029;-85
2022/01/08 12:07:38;;;;;;;538.38;234.98;;;;;;;;;;5017849;28;20436;-85
2022/01/08 12:10:05;;;;;;;360.23;151.82;;;;;;;;;;5017687;28;20030;-85
2022/01/08 12:12:49;;;;;;;563.35;262.98;;;;;;;;;;5016053;28;20158;-84
2022/01/08 12:15:16;;;;;;;829.20;414.52;;;;;;;;;;5016618;28;20030;-85
2022/01/08 12:17:58;;;;;;;545.92;262.83;;;;;;;;;;5016463;28;20026;-84
2022/01/08 12:20:54;;;;;;;491.17;220.45;;;;;;;;;;5017470;28;20332;-85
2022/01/08 12:23:32;;;;;;;271.65;111.95;;;;;;;;;;4957316;29;20086;-84
2022/01/08 12:25:59;;;;;;;332.23;135.20;;;;;;;;;;4957496;29;20027;-81
2022/01/08 12:28:45;;;;;;;322.23;127.75;;;;;;;;;;4957338;29;20031;-85
2022/01/08 12:31:28;;;;;;;364.05;138.60;;;;;;;;;;4957325;29;20110;-85
2022/01/08 12:34:15;;;;;;;402.95;169.40;;;;;;;;;;4957240;29;20035;-85
2022/01/08 12:37:10;;;;;;;425.25;169.82;;;;;;;;;;4957307;29;20046;-85
2022/01/08 12:39:48;;;;;;;618.83;283.33;;;;;;;;;;4957182;28;20417;-84
2022/01/08 12:42:20;;;;;;;568.13;274.88;;;;;;;;;;4960681;29;20561;-85
2022/01/08 12:45:06;;;;;;;467.23;220.30;;;;;;;;;;4960022;29;20039;-84
2022/01/08 12:47:47;;;;;;;541.53;269.02;;;;;;;;;;4951903;29;20033;-84
2022/01/08 12:50:16;;;;;;;348.80;151.93;;;;;;;;;;4961145;29;20027;-84
2022/01/08 12:53:02;;;;;;;406.48;186.20;;;;;;;;;;4960860;29;20043;-84
2022/01/08 12:55:28;;;;;;;725.50;367.80;;;;;;;;;;4960897;29;20098;-84
2022/01/08 12:57:54;;;;;;;557.55;266.30;;;;;;;;;;4960823;29;20050;-85
2022/01/08 13:00:21;;;;;;;594.97;288.75;;;;;;;;;;4989827;28;20062;-84
2022/01/08 13:02:47;;;;;;;472.00;211.25;;;;;;;;;;5020659;28;20040;-84
2022/01/08 13:05:13;;;;;;;321.90;127.93;;;;;;;;;;5020853;28;20025;-84
2022/01/08 13:07:52;;;;;;;225.30;89.68;;;;;;;;;;5021002;28;20057;-84
2022/01/08 13:10:18;;;;;;;385.85;149.30;;;;;;;;;;5020872;28;20025;-84
2022/01/08 13:13:04;;;;;;;307.90;124.25;;;;;;;;;;5019108;28;20037;-85
2022/01/08 13:15:31;;;;;;;232.65;98.10;;;;;;;;;;5019543;28;20348;-84
2022/01/08 13:18:16;;;;;;;879.70;361.58;;;;;;;;;;5020478;28;20459;-84
2022/01/08 13:20:42;;;;;;;733.63;291.50;;;;;;;;;;5020439;28;20144;-84
2022/01/08 13:23:10;;;;;;;979.03;396.40;;;;;;;;;;5020594;28;20121;-84
2022/01/08 13:25:36;;;;;;;993.25;402.67;;;;;;;;;;5018758;28;20026;-84
2022/01/08 13:28:02;;;;;;;642.55;263.60;;;;;;;;;;5018753;28;20029;-84
2022/01/08 13:30:29;;;;;;;699.72;310.25;;;;;;;;;;5020305;28;20033;-84
2022/01/08 13:33:02;;;;;;;946.97;465.60;;;;;;;;;;5020459;28;20084;-83
2022/01/08 13:35:28;;;;;;;708.03;290.00;;;;;;;;;;5020378;28;20305;-89
2022/01/08 13:37:54;;;;;;;810.75;289.73;;;;;;;;;;5001994;28;20101;-86
2022/01/08 13:40:28;;;;;;;750.88;266.92;;;;;;;;;;4999554;28;20030;-87
2022/01/08 13:42:54;;;;;;;677.25;232.27;;;;;;;;;;5000817;28;20030;-86
2022/01/08 13:45:25;;;;;;;978.17;342.60;;;;;;;;;;5000838;28;20053;-86
2022/01/08 13:47:51;;;;;;;1022.15;362.27;;;;;;;;;;5005916;28;20010;-87
2022/01/08 13:50:28;;;;;;;1194.32;450.95;;;;;;;;;;5020192;28;20064;-87
2022/01/08 13:53:02;;;;;;;1133.35;440.98;;;;;;;;;;5020013;28;20034;-86
2022/01/08 13:55:32;;;;;;;503.42;186.15;;;;;;;;;;5020049;28;20110;-86
2022/01/08 13:58:06;;;;;;;1184.43;494.95;;;;;;;;;;5020118;28;20026;-86
2022/01/08 14:00:34;;;;;;;791.88;335.25;;;;;;;;;;5019097;28;20054;-87
2022/01/08 14:03:00;;;;;;;650.28;277.48;;;;;;;;;;5019695;28;20412;-86
2022/01/08 14:05:27;;;;;;;548.90;222.30;;;;;;;;;;5019186;28;20104;-86
2022/01/08 14:08:02;;;;;;;654.00;283.17;;;;;;;;;;5019939;28;20026;-86
2022/01/08 14:10:35;;;;;;;701.53;302.20;;;;;;;;;;5019979;28;20022;-87
2022/01/08 14:13:05;;;;;;;555.60;228.68;;;;;;;;;;5019934;28;20034;-87
2022/01/08 14:15:31;;;;;;;630.90;257.38;;;;;;;;;;5019720;28;20026;-86
2022/01/08 14:18:07;;;;;;;525.47;200.18;;;;;;;;;;5013459;28;20352;-87
2022/01/08 14:20:33;;;;;;;400.08;153.13;;;;;;;;;;4998843;28;20074;-87
2022/01/08 14:23:35;;;;;;;489.23;201.88;;;;;;;;;;4999931;28;20117;-86
2022/01/08 14:26:12;;;;;;;529.08;242.50;;;;;;;;;;4959678;29;20405;-86
2022/01/08 14:28:38;;;;;;;581.15;298.77;;;;;;;;;;4959409;29;20043;-86
2022/01/08 14:31:12;;;;;;;367.88;176.80;;;;;;;;;;4959620;29;20031;-86
2022/01/08 14:33:58;;;;;;;254.55;126.25;;;;;;;;;;4959487;29;20035;-86
2022/01/08 14:36:24;;;;;;;263.60;127.75;;;;;;;;;;4959604;29;20098;-88
2022/01/08 14:38:52;;;;;;;221.20;111.45;;;;;;;;;;4959277;29;20031;-86
2022/01/08 14:41:34;;;;;;;219.10;118.07;;;;;;;;;;4959073;29;20057;-87
2022/01/08 14:44:00;;;;;;;125.03;69.07;;;;;;;;;;4959414;29;20034;-87
2022/01/08 14:46:27;;;;;;;161.25;86.93;;;;;;;;;;4959422;29;20027;-88
2022/01/08 14:48:53;;;;;;;115.85;61.50;;;;;;;;;;4945538;29;20027;-87
2022/01/08 14:51:20;;;;;;;156.70;82.75;;;;;;;;;;4939975;29;20038;-85
2022/01/08 14:53:46;;;;;;;190.65;94.57;;;;;;;;;;4939670;29;20031;-85